Time;durP1;ratioP1;P1;durP2;ratioP2;P2;SDS_P1;SDS_P2;PMS_P1;PMS_P2;Temp;Humidity;BMP_temperature;BMP_pressure;BME280_temperature;BME280_humidity;BME280_pressure;Samples;Min_cycle;Max_cycle;Signal;HPM_P1;HPM_P2
2023/04/13 00:02:22;;;;;;;1.05;0.98;;;;;;;11.17;47.85;98569.53;4418539;32;32992;-79
2023/04/13 00:04:51;;;;;;;1.45;1.10;;;;;;;11.15;48.31;98566.13;4412807;32;33506;-81
2023/04/13 00:07:21;;;;;;;1.25;1.05;;;;;;;11.22;48.30;98559.81;4410832;32;32818;-80
2023/04/13 00:09:50;;;;;;;2.80;1.25;;;;;;;10.98;48.49;98561.50;4413919;32;33804;-82
2023/04/13 00:12:20;;;;;;;0.80;0.80;;;;;;;10.90;47.59;98555.72;4412298;32;33573;-81
2023/04/13 00:14:50;;;;;;;1.30;1.20;;;;;;;11.17;47.00;98558.28;4412373;32;35914;-80
2023/04/13 00:17:21;;;;;;;1.80;1.70;;;;;;;11.32;47.13;98552.56;4410276;32;32978;-83
2023/04/13 00:19:52;;;;;;;1.10;1.00;;;;;;;11.47;45.79;98552.03;4412640;32;33112;-80
2023/04/13 00:22:22;;;;;;;1.75;1.62;;;;;;;11.33;46.49;98549.06;4413337;32;34339;-80
2023/04/13 00:24:53;;;;;;;1.65;1.25;;;;;;;11.15;47.40;98547.94;4416909;32;34776;-82
2023/04/13 00:27:25;;;;;;;0.80;0.80;;;;;;;11.36;46.91;98546.38;4412251;32;34052;-80
2023/04/13 00:29:55;;;;;;;1.95;1.30;;;;;;;11.38;47.25;98547.19;4414473;32;34331;-82
2023/04/13 00:32:25;;;;;;;2.20;1.52;;;;;;;11.35;47.66;98551.63;4414381;32;33780;-82
2023/04/13 00:34:54;;;;;;;1.00;0.90;;;;;;;11.34;47.71;98548.19;4420365;32;35169;-79
2023/04/13 00:37:22;;;;;;;1.10;1.00;;;;;;;11.41;47.84;98541.88;4398819;32;32123;-82
2023/04/13 00:39:51;;;;;;;2.97;1.20;;;;;;;11.19;48.00;98546.13;4418654;32;32141;-80
2023/04/13 00:42:23;;;;;;;0.93;0.93;;;;;;;11.43;46.81;98539.19;4414931;32;36511;-82
2023/04/13 00:44:52;;;;;;;2.62;1.17;;;;;;;11.34;46.96;98540.38;4410661;32;32880;-84
2023/04/13 00:47:25;;;;;;;1.25;1.15;;;;;;;11.41;46.74;98541.88;4406199;32;32916;-79
2023/04/13 00:49:55;;;;;;;1.02;1.00;;;;;;;11.58;46.03;98546.47;4410663;32;33873;-80
2023/04/13 00:52:24;;;;;;;0.93;0.90;;;;;;;11.59;45.99;98544.72;4415966;32;33620;-81
2023/04/13 00:54:55;;;;;;;1.15;1.00;;;;;;;11.69;45.97;98543.47;4415493;32;34475;-80
2023/04/13 00:57:26;;;;;;;1.55;1.45;;;;;;;11.55;46.64;98541.41;4419785;32;32855;-80
2023/04/13 00:59:54;;;;;;;0.90;0.90;;;;;;;11.53;46.89;98540.59;4414455;32;33670;-80
2023/04/13 01:02:25;;;;;;;0.98;0.93;;;;;;;11.39;46.96;98538.47;4412016;32;37161;-79
2023/04/13 01:04:54;;;;;;;0.97;0.90;;;;;;;11.47;47.05;98538.19;4416758;32;32805;-80
2023/04/13 01:07:36;;;;;;;1.23;1.10;;;;;;;11.58;46.59;98543.88;4412746;32;33424;-81
2023/04/13 01:10:08;;;;;;;1.10;1.10;;;;;;;11.51;46.86;98539.81;4419983;32;33666;-81
2023/04/13 01:12:44;;;;;;;1.48;1.37;;;;;;;11.47;47.22;98541.62;4410187;32;34137;-80
2023/04/13 01:15:14;;;;;;;0.73;0.73;;;;;;;11.43;47.78;98537.47;4412988;32;33375;-80
2023/04/13 01:17:50;;;;;;;1.48;1.25;;;;;;;11.32;48.49;98531.81;4411798;32;33528;-82
2023/04/13 01:20:27;;;;;;;1.50;1.37;;;;;;;11.53;48.66;98538.84;4414146;32;34395;-81
2023/04/13 01:22:57;;;;;;;1.83;1.53;;;;;;;11.46;48.90;98532.16;4418596;32;34007;-80
2023/04/13 01:25:36;;;;;;;1.65;1.23;;;;;;;11.50;49.00;98528.56;4411180;32;34867;-80
2023/04/13 01:28:09;;;;;;;1.75;1.23;;;;;;;11.52;48.98;98531.09;4410774;32;33810;-80
2023/04/13 01:30:39;;;;;;;1.45;1.10;;;;;;;11.60;48.67;98536.00;4413089;32;34428;-78
2023/04/13 01:33:09;;;;;;;1.10;1.00;;;;;;;11.36;49.11;98527.38;4411770;32;34333;-79
2023/04/13 01:35:39;;;;;;;2.35;1.17;;;;;;;11.53;48.77;98528.44;4419889;32;33970;-80
2023/04/13 01:38:08;;;;;;;0.80;0.80;;;;;;;11.50;48.91;98531.16;4412662;32;32503;-80
2023/04/13 01:40:40;;;;;;;2.87;1.55;;;;;;;11.52;48.79;98529.37;4411907;32;33526;-82
2023/04/13 01:43:10;;;;;;;1.40;1.30;;;;;;;11.61;48.62;98535.13;4410377;32;33676;-81
2023/04/13 01:45:46;;;;;;;1.15;1.08;;;;;;;11.44;49.05;98535.72;4419168;32;35421;-80
2023/04/13 01:48:20;;;;;;;1.83;1.30;;;;;;;11.59;48.62;98536.94;4413198;32;33981;-84
2023/04/13 01:50:52;;;;;;;0.82;0.82;;;;;;;11.53;48.62;98538.84;4413016;32;33836;-83
2023/04/13 01:53:28;;;;;;;1.05;0.93;;;;;;;11.49;48.65;98534.66;4414179;32;34798;-80
2023/04/13 01:55:59;;;;;;;1.30;1.20;;;;;;;11.44;49.02;98539.16;4413430;32;33830;-80
2023/04/13 01:58:32;;;;;;;1.40;1.30;;;;;;;11.52;49.02;98534.56;4419240;32;33373;-81
2023/04/13 02:01:06;;;;;;;1.20;1.12;;;;;;;11.47;49.10;98536.44;4414081;32;33462;-80
2023/04/13 02:03:37;;;;;;;1.42;1.10;;;;;;;11.58;49.05;98537.84;4413286;32;35465;-80
2023/04/13 02:06:07;;;;;;;0.90;0.90;;;;;;;11.47;49.42;98535.59;4411844;32;32439;-84
2023/04/13 02:08:38;;;;;;;1.08;1.08;;;;;;;11.51;49.26;98538.03;4413973;32;34178;-81
2023/04/13 02:11:07;;;;;;;1.35;1.25;;;;;;;11.47;49.26;98536.44;4419302;32;34539;-82
2023/04/13 02:13:37;;;;;;;1.30;0.88;;;;;;;11.43;49.45;98534.00;4412823;32;33721;-80
2023/04/13 02:16:07;;;;;;;1.00;1.00;;;;;;;11.52;49.13;98538.88;4414369;32;33534;-80
2023/04/13 02:18:36;;;;;;;0.80;0.80;;;;;;;11.46;49.17;98539.97;4411604;32;33661;-81
2023/04/13 02:21:08;;;;;;;1.42;1.10;;;;;;;11.56;49.03;98544.84;4419400;32;33550;-83
2023/04/13 02:23:41;;;;;;;0.77;0.77;;;;;;;11.67;48.89;98537.47;4414661;32;35837;-82
2023/04/13 02:26:11;;;;;;;1.50;1.37;;;;;;;11.64;48.84;98538.44;4413995;32;34526;-81
2023/04/13 02:28:42;;;;;;;0.98;0.98;;;;;;;11.50;49.17;98536.34;4413758;32;33368;-82
2023/04/13 02:31:15;;;;;;;1.12;1.02;;;;;;;11.61;49.02;98540.31;4405782;32;32647;-83
2023/04/13 02:33:45;;;;;;;0.80;0.80;;;;;;;11.51;49.24;98540.63;4419788;32;33509;-80
2023/04/13 02:36:16;;;;;;;0.90;0.90;;;;;;;11.53;49.10;98535.41;4413412;32;33966;-83
2023/04/13 02:38:46;;;;;;;1.05;0.90;;;;;;;11.53;48.97;98536.25;4415017;32;32872;-80
2023/04/13 02:41:21;;;;;;;1.62;0.90;;;;;;;11.59;48.64;98531.72;4410177;32;34611;-84
2023/04/13 02:43:52;;;;;;;2.50;1.40;;;;;;;11.50;48.52;98528.56;4412645;32;34108;-83
2023/04/13 02:46:22;;;;;;;2.05;1.17;;;;;;;11.69;47.34;98533.09;4420199;32;33607;-80
2023/04/13 02:48:53;;;;;;;1.42;1.33;;;;;;;11.67;47.02;98527.97;4415021;32;33445;-80
2023/04/13 02:51:21;;;;;;;0.80;0.80;;;;;;;11.58;47.52;98533.47;4414856;32;33927;-79
2023/04/13 02:53:51;;;;;;;1.02;0.93;;;;;;;11.50;47.89;98525.97;4399943;32;32805;-83
2023/04/13 02:56:21;;;;;;;1.02;1.00;;;;;;;11.34;48.34;98527.41;4419058;32;33274;-79
2023/04/13 02:58:52;;;;;;;1.50;1.27;;;;;;;11.30;48.39;98515.41;4414761;32;34004;-81
2023/04/13 03:01:23;;;;;;;1.55;1.45;;;;;;;10.99;48.69;98524.25;4423694;32;34646;-79
2023/04/13 03:03:53;;;;;;;0.80;0.80;;;;;;;10.91;48.85;98525.44;4430414;32;33915;-79
2023/04/13 03:06:23;;;;;;;0.75;0.75;;;;;;;11.15;48.48;98528.94;4416090;32;33855;-82
2023/04/13 03:08:52;;;;;;;0.73;0.73;;;;;;;11.07;48.30;98527.44;4420326;32;33759;-84
2023/04/13 03:11:22;;;;;;;1.73;1.10;;;;;;;11.08;48.15;98526.53;4414471;32;33608;-81
2023/04/13 03:13:56;;;;;;;1.55;1.20;;;;;;;11.05;48.27;98533.59;4414036;32;34006;-80
2023/04/13 03:16:27;;;;;;;1.83;1.15;;;;;;;10.73;47.86;98525.13;4414739;32;33721;-80
2023/04/13 03:18:56;;;;;;;0.80;0.80;;;;;;;10.88;47.38;98526.38;4419434;32;33221;-80
2023/04/13 03:21:26;;;;;;;1.48;1.08;;;;;;;11.19;46.89;98527.94;4415262;32;34411;-81
2023/04/13 03:23:57;;;;;;;0.90;0.90;;;;;;;10.89;47.51;98530.66;4411499;32;33592;-80
2023/04/13 03:26:27;;;;;;;1.30;1.20;;;;;;;11.33;47.08;98523.09;4411139;32;33361;-83
2023/04/13 03:28:58;;;;;;;0.98;0.90;;;;;;;11.08;47.83;98528.28;4412977;32;33127;-81
2023/04/13 03:31:27;;;;;;;1.77;1.60;;;;;;;11.28;47.59;98522.41;4417578;32;33775;-80
2023/04/13 03:33:56;;;;;;;1.15;1.05;;;;;;;11.25;47.14;98522.53;4413138;32;34333;-80
2023/04/13 03:36:27;;;;;;;1.67;1.10;;;;;;;11.17;47.24;98527.16;4412244;32;35150;-80
2023/04/13 03:38:56;;;;;;;4.10;0.93;;;;;;;11.12;47.35;98523.88;4411006;32;33107;-85
2023/04/13 03:41:26;;;;;;;1.27;1.17;;;;;;;10.86;46.93;98525.56;4417401;32;33562;-84
2023/04/13 03:43:55;;;;;;;3.30;1.50;;;;;;;11.03;46.84;98517.22;4414001;32;34819;-83
2023/04/13 03:46:26;;;;;;;0.70;0.70;;;;;;;10.91;47.03;98517.63;4411553;32;33705;-79
2023/04/13 03:48:56;;;;;;;0.85;0.85;;;;;;;10.89;46.62;98517.69;4413821;32;34035;-80
2023/04/13 03:51:26;;;;;;;1.02;1.02;;;;;;;11.03;46.29;98512.03;4413221;32;34892;-82
2023/04/13 03:53:55;;;;;;;1.42;1.10;;;;;;;11.06;46.26;98517.13;4418849;32;34436;-83
2023/04/13 03:56:25;;;;;;;1.65;1.55;;;;;;;11.03;47.03;98514.63;4408917;32;34618;-80
2023/04/13 03:58:55;;;;;;;2.05;1.23;;;;;;;11.09;47.17;98510.09;4410470;32;32968;-82
2023/04/13 04:01:26;;;;;;;0.88;0.88;;;;;;;11.00;47.52;98513.00;4411725;32;35172;-79
2023/04/13 04:03:56;;;;;;;1.02;0.95;;;;;;;10.88;47.85;98510.81;4416020;32;34420;-84
2023/04/13 04:06:28;;;;;;;1.40;0.90;;;;;;;10.84;48.17;98510.03;4415034;32;34254;-80
2023/04/13 04:08:58;;;;;;;1.13;1.10;;;;;;;10.87;47.78;98519.47;4414936;32;33367;-80
2023/04/13 04:11:27;;;;;;;1.17;1.08;;;;;;;10.89;47.35;98525.47;4414506;32;33280;-80
2023/04/13 04:13:56;;;;;;;0.82;0.82;;;;;;;11.00;47.14;98523.37;4414256;32;33168;-81
2023/04/13 04:16:27;;;;;;;2.08;1.87;;;;;;;10.99;46.70;98528.59;4420697;32;34037;-80
2023/04/13 04:18:57;;;;;;;2.45;2.25;;;;;;;10.91;46.61;98526.25;4412904;32;31663;-80
2023/04/13 04:21:32;;;;;;;2.58;1.33;;;;;;;10.83;46.63;98521.34;4415220;32;33415;-82
2023/04/13 04:24:01;;;;;;;2.28;1.33;;;;;;;10.64;47.03;98517.66;4414758;32;33725;-83
2023/04/13 04:26:31;;;;;;;2.47;1.52;;;;;;;10.77;46.88;98518.09;4420124;32;33032;-80
2023/04/13 04:29:00;;;;;;;2.72;1.05;;;;;;;10.86;46.51;98525.56;4413403;32;33818;-82
2023/04/13 04:31:42;;;;;;;1.37;1.27;;;;;;;10.87;46.41;98524.66;4415577;32;33720;-84
2023/04/13 04:34:15;;;;;;;1.30;1.20;;;;;;;10.54;46.28;98519.69;4415659;32;33675;-80
2023/04/13 04:36:49;;;;;;;1.10;1.10;;;;;;;10.68;46.82;98524.44;4414364;32;33833;-82
2023/04/13 04:39:21;;;;;;;1.12;1.05;;;;;;;10.82;46.63;98523.97;4418955;32;33859;-80
2023/04/13 04:41:52;;;;;;;3.33;1.10;;;;;;;10.87;46.73;98535.91;4410830;32;33631;-80
2023/04/13 04:44:23;;;;;;;1.27;1.08;;;;;;;10.77;47.06;98528.47;4415899;32;33658;-83
2023/04/13 04:46:54;;;;;;;1.43;1.13;;;;;;;10.67;46.87;98528.75;4415691;32;32884;-82
2023/04/13 04:49:24;;;;;;;2.17;1.47;;;;;;;10.74;46.81;98528.56;4425761;32;32832;-83
2023/04/13 04:51:53;;;;;;;1.75;1.17;;;;;;;10.70;46.54;98527.81;4432563;32;33443;-83
2023/04/13 04:54:23;;;;;;;1.20;1.10;;;;;;;10.74;46.93;98529.41;4415225;32;34046;-79
2023/04/13 04:56:53;;;;;;;2.80;1.52;;;;;;;11.01;46.60;98539.78;4414046;32;33479;-79
2023/04/13 04:59:22;;;;;;;3.37;1.35;;;;;;;10.86;46.67;98539.38;4413889;32;33968;-79
2023/04/13 05:01:52;;;;;;;2.22;2.03;;;;;;;11.26;45.63;98534.59;4418229;32;33158;-80
2023/04/13 05:04:22;;;;;;;1.55;1.42;;;;;;;10.87;44.77;98530.72;4413732;32;33794;-80
2023/04/13 05:06:51;;;;;;;1.80;1.40;;;;;;;10.83;45.10;98523.94;4413372;32;35045;-81
2023/04/13 05:09:20;;;;;;;1.30;1.20;;;;;;;10.90;44.89;98529.78;4414521;32;32512;-82
2023/04/13 05:11:49;;;;;;;1.30;1.17;;;;;;;11.09;44.88;98525.66;4406824;32;34265;-84
2023/04/13 05:14:18;;;;;;;1.33;1.05;;;;;;;11.24;44.60;98536.41;4407231;32;34223;-80
2023/04/13 05:16:47;;;;;;;0.93;0.93;;;;;;;11.07;44.48;98521.41;4398506;32;35059;-79
2023/04/13 05:19:16;;;;;;;1.00;1.00;;;;;;;11.18;44.65;98536.63;4409517;32;33838;-82
2023/04/13 05:21:47;;;;;;;0.80;0.80;;;;;;;11.19;44.51;98533.97;4412383;32;34262;-82
2023/04/13 05:24:16;;;;;;;1.50;1.40;;;;;;;11.39;43.67;98538.47;4420240;32;33925;-80
2023/04/13 05:26:46;;;;;;;1.12;1.02;;;;;;;11.68;43.57;98542.63;4415225;32;33756;-80
2023/04/13 05:29:15;;;;;;;0.95;0.80;;;;;;;11.80;44.11;98538.75;4409137;32;34023;-82
2023/04/13 05:31:45;;;;;;;1.05;0.95;;;;;;;12.05;44.26;98545.66;4409331;32;32749;-82
2023/04/13 05:34:15;;;;;;;1.23;0.90;;;;;;;12.12;43.93;98542.78;4419062;32;33879;-82
2023/04/13 05:36:47;;;;;;;1.10;0.80;;;;;;;12.38;42.54;98540.94;4421193;32;32211;-81
2023/04/13 05:39:18;;;;;;;1.08;1.00;;;;;;;12.30;42.04;98541.25;4415121;32;33119;-79
2023/04/13 05:41:48;;;;;;;2.70;1.50;;;;;;;12.53;41.89;98540.31;4413592;32;33827;-81
2023/04/13 05:44:18;;;;;;;0.82;0.80;;;;;;;12.97;41.31;98536.84;4413126;32;33899;-83
2023/04/13 05:46:50;;;;;;;1.42;1.35;;;;;;;12.96;40.11;98537.75;4412956;32;33448;-83
2023/04/13 05:49:19;;;;;;;1.17;1.00;;;;;;;12.69;40.17;98535.38;4413920;32;33195;-82
2023/04/13 05:51:53;;;;;;;1.70;0.88;;;;;;;12.71;40.04;98541.38;4408372;32;33465;-80
2023/04/13 05:54:23;;;;;;;0.80;0.80;;;;;;;12.35;40.51;98535.88;4411689;32;33786;-80
2023/04/13 05:56:52;;;;;;;1.48;1.37;;;;;;;12.50;40.76;98534.41;4409775;32;34368;-83
2023/04/13 05:59:21;;;;;;;1.05;0.95;;;;;;;12.30;41.11;98537.78;4418727;32;33000;-81
2023/04/13 06:01:49;;;;;;;1.33;1.23;;;;;;;12.09;41.94;98532.50;4418268;32;33625;-81
2023/04/13 06:04:21;;;;;;;1.07;0.97;;;;;;;12.28;41.76;98540.44;4413853;32;33953;-84
2023/04/13 06:06:51;;;;;;;1.23;0.90;;;;;;;12.32;41.87;98544.63;4415297;32;34104;-81
2023/04/13 06:09:20;;;;;;;0.90;0.90;;;;;;;12.30;41.77;98538.63;4421013;32;32799;-81
2023/04/13 06:11:49;;;;;;;0.82;0.82;;;;;;;12.29;42.08;98536.09;4415135;32;33245;-82
2023/04/13 06:14:19;;;;;;;0.80;0.80;;;;;;;12.18;41.80;98531.31;4415090;32;34405;-81
2023/04/13 06:16:48;;;;;;;0.90;0.80;;;;;;;13.05;40.89;98533.91;4414977;32;34535;-81
2023/04/13 06:19:17;;;;;;;1.35;1.08;;;;;;;13.06;41.22;98533.84;4415041;32;32860;-81
2023/04/13 06:21:46;;;;;;;1.10;0.90;;;;;;;13.09;41.23;98528.50;4419657;32;34228;-81
2023/04/13 06:24:17;;;;;;;1.00;1.00;;;;;;;13.13;40.52;98537.87;4415995;32;33540;-80
2023/04/13 06:26:46;;;;;;;0.90;0.90;;;;;;;13.31;40.55;98538.06;4415708;32;33623;-82
2023/04/13 06:29:15;;;;;;;1.33;1.20;;;;;;;13.29;39.69;98548.56;4416988;32;33921;-82
2023/04/13 06:31:45;;;;;;;2.08;0.90;;;;;;;13.70;39.34;98545.03;4421589;32;34618;-85
2023/04/13 06:34:14;;;;;;;0.80;0.80;;;;;;;13.71;39.87;98544.16;4412942;32;88906;-82
2023/04/13 06:36:44;;;;;;;1.12;0.95;;;;;;;13.74;39.63;98542.22;4416170;32;33703;-82
2023/04/13 06:39:12;;;;;;;0.80;0.80;;;;;;;13.81;38.82;98542.81;4415924;32;33795;-84
2023/04/13 06:41:43;;;;;;;1.45;1.08;;;;;;;13.96;37.89;98547.31;4420826;32;34614;-81
2023/04/13 06:44:13;;;;;;;0.75;0.70;;;;;;;14.20;38.16;98547.97;4409398;32;32887;-82
2023/04/13 06:46:42;;;;;;;1.42;1.33;;;;;;;14.16;38.44;98545.56;4416526;32;33832;-84
2023/04/13 06:49:12;;;;;;;1.98;0.98;;;;;;;14.25;37.94;98551.22;4416823;32;33380;-84
2023/04/13 06:51:41;;;;;;;3.30;0.85;;;;;;;14.19;37.98;98550.66;4416501;32;33404;-83
2023/04/13 06:54:10;;;;;;;0.73;0.73;;;;;;;14.33;38.29;98550.00;4421083;32;34572;-85
2023/04/13 06:56:39;;;;;;;1.80;1.05;;;;;;;14.20;38.01;98558.41;4415115;32;33621;-82
2023/04/13 06:59:10;;;;;;;0.70;0.70;;;;;;;14.39;37.27;98560.16;4414903;32;33085;-81
2023/04/13 07:01:38;;;;;;;0.68;0.68;;;;;;;14.50;38.25;98552.69;4416065;32;34399;-82
2023/04/13 12:09:45;;;;;;;0.45;0.45;;;;;;;20.88;29.84;98484.28;4468437;32;84995;-82
2023/04/13 12:12:18;;;;;;;1.25;0.75;;;;;;;20.88;29.84;98484.28;4460268;32;33509;-82
2023/04/13 12:14:54;;;;;;;1.15;0.82;;;;;;;20.57;30.83;98485.72;4456098;32;34076;-83
2023/04/13 12:17:45;;;;;;;0.73;0.68;;;;;;;20.52;29.80;98474.66;4457671;32;34559;-81
2023/04/13 12:20:17;;;;;;;1.65;1.00;;;;;;;20.45;29.54;98468.97;4450204;32;34588;-82
2023/04/13 12:22:48;;;;;;;1.35;0.70;;;;;;;20.54;30.13;98467.47;4446242;32;32548;-82
2023/04/13 12:25:32;;;;;;;0.68;0.47;;;;;;;20.62;29.58;98472.19;4450849;32;34566;-82
2023/04/13 12:28:04;;;;;;;0.50;0.50;;;;;;;20.44;29.76;98471.72;4442314;32;33148;-82
2023/04/13 12:30:33;;;;;;;0.50;0.50;;;;;;;20.57;28.87;98471.72;4448002;32;34420;-83
2023/04/13 12:33:02;;;;;;;0.55;0.40;;;;;;;20.61;28.59;98457.34;4446418;32;33867;-82
2023/04/13 12:35:31;;;;;;;0.47;0.47;;;;;;;20.54;30.12;98448.16;4443583;32;34176;-82
2023/04/13 12:38:00;;;;;;;0.55;0.43;;;;;;;20.53;29.49;98449.97;4450811;32;33725;-83
2023/04/13 12:40:29;;;;;;;2.78;0.70;;;;;;;20.50;29.21;98452.84;4443696;32;34725;-81
2023/04/13 12:42:59;;;;;;;1.12;0.60;;;;;;;20.67;29.57;98454.25;4449336;32;33871;-82
2023/04/13 12:45:29;;;;;;;0.70;0.70;;;;;;;21.04;28.99;98452.31;4450121;32;34477;-82
2023/04/13 12:47:58;;;;;;;1.58;1.02;;;;;;;21.10;28.65;98446.59;4447592;32;33399;-83
2023/04/13 12:50:27;;;;;;;1.27;0.70;;;;;;;21.12;28.61;98441.22;4443401;32;33281;-82
2023/04/13 12:52:56;;;;;;;2.33;0.88;;;;;;;21.24;28.70;98447.34;4447438;32;34099;-83
2023/04/13 12:55:25;;;;;;;2.35;1.33;;;;;;;21.34;28.27;98442.19;4443325;32;35017;-84
2023/04/13 12:57:53;;;;;;;1.67;1.00;;;;;;;21.17;27.70;98433.78;4449260;32;34081;-83
2023/04/13 13:00:24;;;;;;;0.45;0.45;;;;;;;21.25;28.02;98436.66;4448538;32;33279;-82
2023/04/13 13:02:53;;;;;;;1.60;1.05;;;;;;;20.76;29.58;98437.75;4440677;32;32825;-81
2023/04/13 13:05:37;;;;;;;1.15;0.70;;;;;;;20.65;28.80;98435.06;4442682;32;34369;-83
2023/04/13 13:08:07;;;;;;;1.10;0.68;;;;;;;20.19;29.70;98430.53;4443856;32;33622;-83
2023/04/13 13:10:37;;;;;;;1.05;0.95;;;;;;;20.31;29.30;98434.91;4443055;32;33283;-83
2023/04/13 13:13:05;;;;;;;0.73;0.60;;;;;;;20.54;29.73;98425.31;4435218;32;33174;-82
2023/04/13 13:15:36;;;;;;;0.60;0.55;;;;;;;20.37;30.85;98437.09;4431231;32;34517;-82
2023/04/13 13:18:07;;;;;;;1.37;0.55;;;;;;;20.48;29.23;98428.41;4436399;32;34368;-81
2023/04/13 13:20:39;;;;;;;1.35;1.08;;;;;;;20.15;29.92;98429.06;4435508;32;34035;-82
2023/04/13 13:23:10;;;;;;;1.25;0.73;;;;;;;19.89;30.93;98437.06;4443164;32;32857;-81
2023/04/13 13:25:41;;;;;;;2.42;0.98;;;;;;;20.10;31.24;98436.47;4433873;32;33848;-82
2023/04/13 13:28:24;;;;;;;1.23;0.68;;;;;;;19.99;30.28;98432.81;4433693;32;33929;-82
2023/04/13 13:30:55;;;;;;;0.55;0.50;;;;;;;20.09;30.22;98427.72;4440648;32;33478;-81
2023/04/13 13:33:24;;;;;;;5.53;1.05;;;;;;;20.25;30.84;98427.47;4432877;32;32697;-82
2023/04/13 13:35:52;;;;;;;0.75;0.60;;;;;;;20.25;31.10;98415.13;4439240;32;33795;-83
2023/04/13 13:38:21;;;;;;;1.12;0.62;;;;;;;20.22;31.18;98420.63;4434645;32;34617;-82
2023/04/13 13:40:50;;;;;;;2.15;1.05;;;;;;;20.35;30.87;98411.84;4433625;32;33287;-81
2023/04/13 13:43:20;;;;;;;2.37;1.10;;;;;;;20.37;30.20;98407.25;4436728;32;33944;-81
2023/04/13 13:45:49;;;;;;;1.00;0.70;;;;;;;20.13;30.23;98409.94;4444041;32;33410;-81
2023/04/13 13:48:20;;;;;;;1.05;0.70;;;;;;;20.09;30.76;98414.56;4431988;32;34576;-81
2023/04/13 13:50:50;;;;;;;0.65;0.60;;;;;;;20.03;31.00;98409.75;4430905;32;34035;-81
2023/04/13 13:53:38;;;;;;;0.52;0.50;;;;;;;19.96;30.61;98400.63;4437555;32;34136;-80
2023/04/13 13:56:11;;;;;;;1.30;0.60;;;;;;;19.98;30.74;98399.56;4432929;32;33624;-82
2023/04/13 13:58:39;;;;;;;1.25;0.52;;;;;;;19.85;30.48;98403.19;4442132;32;33529;-82
2023/04/13 14:01:08;;;;;;;0.98;0.95;;;;;;;19.59;30.15;98404.03;4434178;32;33670;-83
2023/04/13 14:03:39;;;;;;;0.82;0.50;;;;;;;19.72;30.23;98405.84;4433292;32;33904;-80
2023/04/13 14:06:08;;;;;;;0.87;0.80;;;;;;;19.89;29.53;98392.31;4436610;32;33672;-81
2023/04/13 14:08:37;;;;;;;1.02;0.75;;;;;;;19.89;31.42;98397.59;4440861;32;33568;-81
2023/04/13 14:11:06;;;;;;;3.40;1.15;;;;;;;19.83;32.72;98400.66;4430101;32;34690;-83
2023/04/13 14:13:34;;;;;;;1.48;0.88;;;;;;;19.85;30.26;98393.50;4433639;32;33817;-81
2023/04/13 14:16:04;;;;;;;0.85;0.60;;;;;;;19.68;30.91;98392.06;4441789;32;33598;-83
2023/04/13 14:18:32;;;;;;;0.65;0.45;;;;;;;19.51;31.29;98392.41;4435813;32;33821;-81
2023/04/13 14:21:03;;;;;;;0.70;0.70;;;;;;;19.26;31.60;98396.75;4441792;32;34265;-82
2023/04/13 14:23:32;;;;;;;2.10;1.87;;;;;;;18.66;33.71;98400.78;4432934;32;33324;-82
2023/04/13 14:26:01;;;;;;;0.45;0.45;;;;;;;18.21;34.83;98402.88;4439271;32;34375;-81
2023/04/13 14:28:31;;;;;;;1.15;0.60;;;;;;;18.28;35.32;98398.06;4433648;32;33672;-81
2023/04/13 14:31:00;;;;;;;0.80;0.60;;;;;;;17.80;36.87;98389.75;4440992;32;34090;-81
2023/04/13 14:33:29;;;;;;;1.55;0.98;;;;;;;17.58;37.84;98395.53;4431257;32;33191;-80
2023/04/13 14:35:57;;;;;;;0.50;0.50;;;;;;;17.59;38.12;98394.56;4433787;32;33744;-82
2023/04/13 14:38:30;;;;;;;1.87;1.77;;;;;;;17.46;38.45;98384.00;4434033;32;33620;-79
2023/04/13 14:40:59;;;;;;;0.73;0.60;;;;;;;17.39;38.99;98394.03;4429345;32;33266;-81
2023/04/13 14:43:28;;;;;;;1.02;0.68;;;;;;;17.09;40.08;98401.16;4435124;32;34107;-81
2023/04/13 14:45:57;;;;;;;1.95;0.60;;;;;;;16.90;41.09;98399.63;4428249;32;33034;-79
2023/04/13 14:48:26;;;;;;;0.65;0.65;;;;;;;16.97;40.95;98400.13;4435761;32;34645;-81
2023/04/13 14:50:55;;;;;;;1.17;0.80;;;;;;;16.94;40.37;98405.56;4441180;32;33567;-83
2023/04/13 14:53:24;;;;;;;1.15;1.05;;;;;;;16.75;41.10;98400.53;4442857;32;34029;-84
2023/04/13 14:55:55;;;;;;;1.45;1.35;;;;;;;16.38;41.79;98398.28;4432041;32;33690;-84
2023/04/13 14:58:24;;;;;;;0.57;0.57;;;;;;;16.50;41.77;98404.56;4439491;32;34720;-82
2023/04/13 15:00:54;;;;;;;0.95;0.62;;;;;;;16.59;41.57;98405.81;4429543;32;33273;-84
2023/04/13 15:03:23;;;;;;;0.90;0.90;;;;;;;16.49;41.75;98404.66;4443723;32;32989;-82
2023/04/13 15:05:53;;;;;;;0.70;0.70;;;;;;;16.31;42.13;98406.53;4439808;32;33640;-84
2023/04/13 15:08:30;;;;;;;1.73;0.75;;;;;;;16.35;42.06;98405.44;4437080;32;34634;-83
2023/04/13 15:11:00;;;;;;;0.60;0.60;;;;;;;16.43;42.23;98411.94;4433615;32;33406;-82
2023/04/13 15:13:29;;;;;;;1.17;0.60;;;;;;;16.47;42.12;98407.34;4429535;32;32700;-84
2023/04/13 15:15:58;;;;;;;0.60;0.60;;;;;;;16.57;42.52;98405.88;4437912;32;34657;-83
2023/04/13 15:18:27;;;;;;;2.95;0.80;;;;;;;16.68;42.79;98407.06;4430053;32;34564;-83
2023/04/13 15:20:56;;;;;;;0.73;0.52;;;;;;;16.47;42.37;98409.97;4433475;32;34299;-82
2023/04/13 15:23:25;;;;;;;0.90;0.80;;;;;;;16.47;42.66;98411.75;4438949;32;33746;-82
2023/04/13 15:25:56;;;;;;;1.10;0.80;;;;;;;16.36;43.93;98415.00;4430545;32;34376;-84
2023/04/13 15:28:26;;;;;;;1.58;1.10;;;;;;;16.47;43.98;98415.22;4439560;32;34352;-81
2023/04/13 15:30:55;;;;;;;0.77;0.77;;;;;;;16.53;43.92;98417.50;4432253;32;34176;-84
2023/04/13 15:33:24;;;;;;;0.82;0.80;;;;;;;16.37;44.44;98414.91;4428765;32;32935;-83
2023/04/13 15:35:53;;;;;;;0.70;0.70;;;;;;;16.09;46.27;98417.38;4426288;32;33457;-83
2023/04/13 15:38:22;;;;;;;0.50;0.50;;;;;;;16.46;46.09;98420.56;4431119;32;33195;-83
2023/04/13 15:40:51;;;;;;;0.80;0.60;;;;;;;16.55;45.17;98414.75;4436054;32;33309;-82
2023/04/13 15:43:20;;;;;;;0.73;0.73;;;;;;;16.34;45.45;98417.69;4436981;32;33503;-82
2023/04/13 15:45:50;;;;;;;1.15;0.90;;;;;;;16.24;46.19;98419.16;4429350;32;34247;-81
2023/04/13 15:48:19;;;;;;;0.40;0.40;;;;;;;16.23;46.93;98412.22;4437324;32;36290;-83
2023/04/13 15:50:48;;;;;;;1.50;1.35;;;;;;;16.13;46.64;98414.50;4442717;32;33457;-83
2023/04/13 15:53:17;;;;;;;0.85;0.60;;;;;;;16.23;47.14;98416.63;4443590;32;32990;-83
2023/04/13 15:55:46;;;;;;;0.98;0.70;;;;;;;16.16;47.97;98416.97;4433342;32;34600;-82
2023/04/13 15:58:15;;;;;;;1.70;1.23;;;;;;;16.18;47.29;98409.84;4443893;32;34745;-83
2023/04/13 16:00:44;;;;;;;1.00;0.90;;;;;;;15.95;49.16;98402.50;4445985;32;32249;-82
2023/04/13 16:03:14;;;;;;;0.93;0.90;;;;;;;15.58;50.02;98394.00;4439347;32;33111;-83
2023/04/13 16:05:43;;;;;;;0.82;0.70;;;;;;;15.49;50.89;98405.81;4432581;32;32253;-82
2023/04/13 16:08:12;;;;;;;0.98;0.88;;;;;;;15.29;52.29;98406.84;4434973;32;33966;-82
2023/04/13 16:10:44;;;;;;;0.65;0.65;;;;;;;14.96;53.58;98412.09;4437142;32;34035;-83
2023/04/13 16:13:17;;;;;;;1.00;0.93;;;;;;;15.26;52.77;98409.63;4442909;32;33394;-82
2023/04/13 16:15:52;;;;;;;0.93;0.82;;;;;;;14.91;54.22;98412.31;4440191;32;34629;-84
2023/04/13 16:18:27;;;;;;;1.83;1.73;;;;;;;14.92;54.92;98402.72;4430544;32;33951;-84
2023/04/13 16:20:57;;;;;;;0.70;0.70;;;;;;;14.92;55.92;98402.72;4434422;32;33372;-84
2023/04/13 16:23:26;;;;;;;0.80;0.80;;;;;;;14.79;55.07;98407.72;4434783;32;32387;-83
2023/04/13 16:25:56;;;;;;;0.70;0.70;;;;;;;14.52;56.77;98404.69;4435315;32;33311;-84
2023/04/13 16:28:25;;;;;;;2.22;1.45;;;;;;;14.47;56.33;98407.56;4457457;32;33723;-85
2023/04/13 16:30:54;;;;;;;0.93;0.88;;;;;;;14.43;57.06;98406.00;4444415;32;33627;-83
2023/04/13 16:33:25;;;;;;;1.42;1.15;;;;;;;14.36;57.33;98406.41;4447338;32;33305;-83
2023/04/13 16:35:54;;;;;;;1.52;0.80;;;;;;;14.24;57.75;98400.00;4453510;32;34549;-85
2023/04/13 16:38:23;;;;;;;0.80;0.80;;;;;;;14.22;58.23;98407.06;4458691;32;33601;-83
2023/04/13 16:40:52;;;;;;;1.12;1.00;;;;;;;14.37;57.20;98400.25;4451126;32;33360;-85
2023/04/13 16:43:21;;;;;;;0.73;0.73;;;;;;;14.27;58.17;98394.63;4439975;32;33399;-83
2023/04/13 16:45:50;;;;;;;0.80;0.80;;;;;;;14.30;58.37;98399.69;4445523;32;33876;-86
2023/04/13 16:48:19;;;;;;;0.70;0.70;;;;;;;14.28;57.83;98394.56;4455186;32;34773;-84
2023/04/13 16:50:57;;;;;;;1.23;1.12;;;;;;;14.17;58.42;98403.81;4456388;32;33434;-84
2023/04/13 16:53:26;;;;;;;1.90;1.60;;;;;;;14.35;58.58;98402.06;4439422;32;33341;-84
2023/04/13 16:55:56;;;;;;;1.50;1.37;;;;;;;14.47;58.39;98396.25;4434988;32;33476;-83